OOCL Asia — VRBQ6 — position and weather

sailwx.info

Track history (hours):
 
Tides and Currents Weather Stations Pressure Air Temp Water Temp Dewpoint Dewpoint Depression Visibility Wind Speed Wind Dir Waves Ship Positions

OOCL Asia

Last reported at 2018-Feb-18 10:14 UTC. Time now 2018-Feb-20 23:04 UTC.
Position N 32°02' W 079°54'.

Length 323 m; beam 42.8 m; draft 14.5 m.

Type: Cargo ship. MMSI: 477105600.

Date/timePositionNaut miles runAvg speedWind from/ knotsBaromVisibWave heightAir tempDewpointWater temp
2018-Feb-18 10:14N 32°02' W 079°54'9 7.7
2018-Feb-18 09:03N 31°59' W 080°05'1 8.0
2018-Feb-18 08:56N 31°59' W 080°06'3 8.1
2018-Feb-18 08:30N 31°59' W 080°10'15 8.5
2018-Feb-18 06:43N 31°58' W 080°28'2 9.1
2018-Feb-18 06:31N 31°58' W 080°30'5 9.1
2018-Feb-18 06:00N 31°57' W 080°35'4 8.7
2018-Feb-18 05:31N 31°57' W 080°40'611.4
2018-Feb-18 05:00N 31°59' W 080°47'714.0
2018-Feb-18 04:31N 32°02' W 080°54'612.5
2018-Feb-18 04:01N 32°06' W 080°60'5 8.8
2018-Feb-18 03:30N 32°05' W 081°05'3 5.5
2018-Feb-18 03:00N 32°07' W 081°07'2 3.3
2018-Feb-18 02:31N 32°08' W 081°09'0 0.1
2018-Feb-18 01:56N 32°08' W 081°09'0 0.0
2018-Feb-18 01:20N 32°08' W 081°09'0 0.0
2018-Feb-18 00:26N 32°08' W 081°09'0 0.0
2018-Feb-17 23:56N 32°08' W 081°09'0 0.0
2018-Feb-17 23:26N 32°08' W 081°09'0 0.0
2018-Feb-17 22:56N 32°08' W 081°09'0 0.0
2018-Feb-17 22:26N 32°08' W 081°09'0 0.0
2018-Feb-17 21:38N 32°08' W 081°09'0 0.0
2018-Feb-17 21:20N 32°08' W 081°09'0 0.0
2018-Feb-17 20:56N 32°08' W 081°09'0 0.0
2018-Feb-17 20:25N 32°08' W 081°09'0 0.0
2018-Feb-17 20:00N 32°08' W 081°09'0 0.0
2018-Feb-17 19:28N 32°08' W 081°09'0 0.0
2018-Feb-17 18:52N 32°08' W 081°09'0 0.0
2018-Feb-17 18:22N 32°08' W 081°09'0 0.0
2018-Feb-17 17:48N 32°08' W 081°09'0 0.0
2018-Feb-17 17:18N 32°08' W 081°09'0 0.0
2018-Feb-17 16:48N 32°08' W 081°09'0 0.0
2018-Feb-17 16:30N 32°08' W 081°09'0 0.0
2018-Feb-17 16:00N 32°08' W 081°09'0 0.0
2018-Feb-17 15:30N 32°08' W 081°09'0 0.0
2018-Feb-17 15:00N 32°08' W 081°09'0 0.0
2018-Feb-17 14:24N 32°08' W 081°09'0 0.0
2018-Feb-17 13:54N 32°08' W 081°09'0 0.0
2018-Feb-17 13:24N 32°08' W 081°09'0 0.0
2018-Feb-17 13:00N 32°08' W 081°09'0 0.0
2018-Feb-17 12:29N 32°08' W 081°09'0 1.0
2018-Feb-17 12:00N 32°08' W 081°08'0 0.9
2018-Feb-17 11:29N 32°08' W 081°09'0 0.0
2018-Feb-17 11:00N 32°08' W 081°09'0 0.0
2018-Feb-17 10:30N 32°08' W 081°09'0 0.0
2018-Feb-17 09:59N 32°08' W 081°09'0 0.0
2018-Feb-17 09:29N 32°08' W 081°09'0 0.0
2018-Feb-17 08:57N 32°08' W 081°09'0 0.0
2018-Feb-17 08:27N 32°08' W 081°09'0 0.0
2018-Feb-17 07:57N 32°08' W 081°09'0 0.0
2018-Feb-17 07:09N 32°08' W 081°09'0 0.1
2018-Feb-17 06:57N 32°08' W 081°09'0 0.0
2018-Feb-17 06:27N 32°08' W 081°09'0 0.0
2018-Feb-17 05:57N 32°08' W 081°09'0 0.0
2018-Feb-17 05:21N 32°08' W 081°09'0 0.0
2018-Feb-17 04:59N 32°08' W 081°09'0 0.0
2018-Feb-17 04:29N 32°08' W 081°09'0 0.0
2018-Feb-17 03:59N 32°08' W 081°09'0 0.0
2018-Feb-17 03:29N 32°08' W 081°09'0 0.0
2018-Feb-17 03:00N 32°08' W 081°09'0 0.0
2018-Feb-17 02:30N 32°08' W 081°09'0 0.0
2018-Feb-17 02:00N 32°08' W 081°09'0 0.0
2018-Feb-17 01:24N 32°08' W 081°09'0 0.0
2018-Feb-17 01:00N 32°08' W 081°09'0 0.0
2018-Feb-17 00:12N 32°08' W 081°09'0 0.0
2018-Feb-17 00:00N 32°08' W 081°09'0 0.0
2018-Feb-16 23:30N 32°08' W 081°09'0 0.0
2018-Feb-16 23:00N 32°08' W 081°09'0 0.0
2018-Feb-16 22:27N 32°08' W 081°09'0 0.0
2018-Feb-16 21:57N 32°08' W 081°09'0 0.0
2018-Feb-16 21:27N 32°08' W 081°09'0 0.0
2018-Feb-16 20:57N 32°08' W 081°09'0 0.0
2018-Feb-16 20:21N 32°08' W 081°09'0 0.0
2018-Feb-16 19:57N 32°08' W 081°09'0 0.0
2018-Feb-16 19:27N 32°08' W 081°09'0 0.0
2018-Feb-16 18:51N 32°08' W 081°09'0 0.0
2018-Feb-16 18:27N 32°08' W 081°09'0 0.0
2018-Feb-16 17:57N 32°08' W 081°09'0 0.0
2018-Feb-16 17:21N 32°08' W 081°09'0 0.0
2018-Feb-16 16:39N 32°08' W 081°09'0 0.0
2018-Feb-16 16:24N 32°08' W 081°09'0 0.7
2018-Feb-16 16:00N 32°08' W 081°08'2 3.7
2018-Feb-16 15:30N 32°06' W 081°07'3 5.9
2018-Feb-16 15:00N 32°05' W 081°04'3 5.3
2018-Feb-16 14:30N 32°06' W 081°01'4 7.4
2018-Feb-16 14:00N 32°04' W 080°57'4 8.5
2018-Feb-16 13:30N 32°02' W 080°53'4 8.7
2018-Feb-16 13:00N 32°01' W 080°48'5 9.3
2018-Feb-16 12:30N 31°58' W 080°43'4 7.2
2018-Feb-16 12:00N 31°57' W 080°39'1 2.9
2018-Feb-16 11:30N 31°56' W 080°38'3 6.0
2018-Feb-16 11:00N 31°57' W 080°34'4 7.2
2018-Feb-16 10:30N 31°57' W 080°30'4 8.3
2018-Feb-16 10:00N 31°59' W 080°25'4 8.3
2018-Feb-16 09:30N 32°01' W 080°22'4 8.7
2018-Feb-16 09:00N 32°04' W 080°18'4 8.9
2018-Feb-16 08:30N 32°07' W 080°14'4 8.8
2018-Feb-16 08:00N 32°09' W 080°09'1 2.8
2018-Feb-16 07:30N 32°10' W 080°08'0 0.9
2018-Feb-16 07:00N 32°10' W 080°08'0 0.8
2018-Feb-16 06:30N 32°09' W 080°08'1 0.8
2018-Feb-16 05:09N 32°08' W 080°09'0 1.0
2018-Feb-16 04:53N 32°08' W 080°09'0 1.1
2018-Feb-16 04:30N 32°08' W 080°09'2 1.2
2018-Feb-16 03:15N 32°07' W 080°10'1 1.4
2018-Feb-16 02:18N 32°06' W 080°11'0 1.5
2018-Feb-16 02:00N 32°05' W 080°11'14 1.3
2018-Feb-15 15:19N 32°12' W 079°57'2 1.2
2018-Feb-15 13:29N 32°11' W 079°59'1 1.1
2018-Feb-15 12:58N 32°11' W 079°60'0 0.3
2018-Feb-15 12:29N 32°11' W 079°60'1 2.9
2018-Feb-15 11:59N 32°12' W 080°00'8 7.0
2018-Feb-15 10:47N 32°17' W 080°08'0 0.9
2018-Feb-15 10:27N 32°17' W 080°08'0 0.9
2018-Feb-15 09:57N 32°16' W 080°08'0 0.9
2018-Feb-15 09:30N 32°16' W 080°08'1 1.0
2018-Feb-15 08:56N 32°15' W 080°08'0 1.0
2018-Feb-15 08:30N 32°15' W 080°08'0 1.0
2018-Feb-15 08:00N 32°15' W 080°07'1 0.8
2018-Feb-15 07:14N 32°14' W 080°07'0 0.6
2018-Feb-15 06:59N 32°14' W 080°07'0 0.4
2018-Feb-15 06:13N 32°14' W 080°06'0 0.3
2018-Feb-15 05:58N 32°14' W 080°06'0 0.2
2018-Feb-15 05:08N 32°14' W 080°06'0 0.2
2018-Feb-15 04:55N 32°14' W 080°06'0 0.4
2018-Feb-15 04:20N 32°14' W 080°07'0 0.7
2018-Feb-15 03:55N 32°14' W 080°07'0 0.6
2018-Feb-15 03:22N 32°14' W 080°07'0 0.5
2018-Feb-15 03:00N 32°13' W 080°07'  
2018-Feb-12 16:06N 36°43' W 075°40'215.7
2018-Feb-12 16:00N 36°45' W 075°41'510.0
2018-Feb-12 15:30N 36°48' W 075°46'5 9.8
2018-Feb-12 15:00N 36°51' W 075°50'5 9.7
2018-Feb-12 14:30N 36°54' W 075°55'5 9.7
2018-Feb-12 14:00N 36°56' W 076°00'714.1
2018-Feb-12 13:30N 36°59' W 076°08'714.6
2018-Feb-12 13:00N 36°60' W 076°17'5 9.9
2018-Feb-12 12:30N 36°55' W 076°20'1 2.1
2018-Feb-12 11:59N 36°55' W 076°20'0 0.0
2018-Feb-12 11:29N 36°55' W 076°20'0 0.0
2018-Feb-12 10:59N 36°55' W 076°20'0 0.0
2018-Feb-12 10:29N 36°55' W 076°20'0 0.0
2018-Feb-12 09:59N 36°55' W 076°20'0 0.0
2018-Feb-12 09:29N 36°55' W 076°20'0 0.0
2018-Feb-12 08:59N 36°55' W 076°20'0 0.0
2018-Feb-12 08:29N 36°55' W 076°20'0 0.0
2018-Feb-12 07:59N 36°55' W 076°20'0 0.0
2018-Feb-12 07:29N 36°55' W 076°20'0 0.0
2018-Feb-12 06:59N 36°55' W 076°20'0 0.0
2018-Feb-12 06:29N 36°55' W 076°20'0 0.0
2018-Feb-12 05:59N 36°55' W 076°20'0 0.0
2018-Feb-12 05:29N 36°55' W 076°20'0 0.0
2018-Feb-12 04:59N 36°55' W 076°20'0 0.0
2018-Feb-12 04:29N 36°55' W 076°20'0 0.0
2018-Feb-12 03:59N 36°55' W 076°20'0 0.0
2018-Feb-12 03:29N 36°55' W 076°20'0 0.0
2018-Feb-12 02:59N 36°55' W 076°20'0 0.0
2018-Feb-12 02:29N 36°55' W 076°20'0 0.0
2018-Feb-12 01:59N 36°55' W 076°20'0 0.0
2018-Feb-12 01:29N 36°55' W 076°20'0 0.0
2018-Feb-12 00:59N 36°55' W 076°20'0 0.0
2018-Feb-12 00:29N 36°55' W 076°20'0 0.0
2018-Feb-11 23:59N 36°55' W 076°20'0 0.0
2018-Feb-11 23:29N 36°55' W 076°20'0 0.0
2018-Feb-11 22:59N 36°55' W 076°20'0 0.0
2018-Feb-11 22:29N 36°55' W 076°20'0 0.0
2018-Feb-11 21:59N 36°55' W 076°20'0 0.0
2018-Feb-11 21:29N 36°55' W 076°20'0 0.0
2018-Feb-11 20:59N 36°55' W 076°20'0 0.0
2018-Feb-11 20:29N 36°55' W 076°20'0 0.0
2018-Feb-11 19:59N 36°55' W 076°20'0 0.0
2018-Feb-11 19:29N 36°55' W 076°20'0 0.0
2018-Feb-11 18:59N 36°55' W 076°20'0 0.0
2018-Feb-11 18:29N 36°55' W 076°20'0 0.0
2018-Feb-11 17:59N 36°55' W 076°20'0 0.0
2018-Feb-11 17:29N 36°55' W 076°20'0 0.0
2018-Feb-11 16:59N 36°55' W 076°20'0 0.0
2018-Feb-11 16:29N 36°55' W 076°20'0 0.0
2018-Feb-11 15:59N 36°55' W 076°20'0 0.0
2018-Feb-11 15:29N 36°55' W 076°20'0 0.0
2018-Feb-11 14:59N 36°55' W 076°20'0 0.0
2018-Feb-11 14:29N 36°55' W 076°20'0 0.0
2018-Feb-11 13:59N 36°55' W 076°20'0 0.0
2018-Feb-11 13:29N 36°55' W 076°20'0 0.0
2018-Feb-11 12:56N 36°55' W 076°20'0 0.0
2018-Feb-11 12:29N 36°55' W 076°20'0 0.0
2018-Feb-11 11:59N 36°55' W 076°20'0 0.0
2018-Feb-11 11:26N 36°55' W 076°20'0 0.0
2018-Feb-11 10:56N 36°55' W 076°20'0 0.0
2018-Feb-11 10:29N 36°55' W 076°20'0 0.0
2018-Feb-11 09:59N 36°55' W 076°20'0 0.0
2018-Feb-11 09:29N 36°55' W 076°20'0 0.0
2018-Feb-11 08:59N 36°55' W 076°20'0 0.0
2018-Feb-11 08:29N 36°55' W 076°20'0 0.0
2018-Feb-11 07:59N 36°55' W 076°20'0 0.0
2018-Feb-11 07:29N 36°55' W 076°20'0 0.0
2018-Feb-11 06:59N 36°55' W 076°20'0 0.0
2018-Feb-11 06:29N 36°55' W 076°20'0 0.0
2018-Feb-11 05:59N 36°55' W 076°20'0 0.0
2018-Feb-11 05:29N 36°55' W 076°20'0 0.0
2018-Feb-11 04:59N 36°55' W 076°20'0 0.0
2018-Feb-11 04:29N 36°55' W 076°20'0 0.1
2018-Feb-11 04:00N 36°55' W 076°20'1 1.9
2018-Feb-11 03:30N 36°55' W 076°20'4 8.4
2018-Feb-11 03:00N 36°59' W 076°19'612.4
2018-Feb-11 02:30N 36°60' W 076°11'714.5
2018-Feb-11 02:00N 36°57' W 076°02'510.7
2018-Feb-11 01:31N 36°56' W 075°56'5 8.6
2018-Feb-11 00:59N 36°53' W 075°52'5 9.6
2018-Feb-11 00:30N 36°50' W 075°47'17314.0
2018-Feb-10 12:04N 39°20' W 073°56'215.0
2018-Feb-10 11:55N 39°22' W 073°56'714.9
2018-Feb-10 11:28N 39°29' W 073°55'814.9
2018-Feb-10 10:57N 39°37' W 073°53'715.0
2018-Feb-10 10:29N 39°44' W 073°52'715.2
2018-Feb-10 10:00N 39°51' W 073°51'2014.4
2018-Feb-10 08:36N 40°11' W 073°50'2 9.6
2018-Feb-10 08:26N 40°13' W 073°49'4 9.8
2018-Feb-10 08:00N 40°17' W 073°49'5 9.7
2018-Feb-10 07:30N 40°22' W 073°49'5 9.7
2018-Feb-10 07:00N 40°27' W 073°50'5 9.5
2018-Feb-10 06:30N 40°29' W 073°55'611.8
2018-Feb-10 06:00N 40°33' W 074°01'713.7
2018-Feb-10 05:31N 40°39' W 074°04'3 6.6
2018-Feb-10 05:01N 40°39' W 074°09'2 4.1
2018-Feb-10 04:31N 40°41' W 074°09'0 0.0
2018-Feb-10 03:58N 40°41' W 074°09'0 0.0
2018-Feb-10 03:28N 40°41' W 074°09'0 0.0
2018-Feb-10 02:58N 40°41' W 074°09'0 0.0
2018-Feb-10 02:28N 40°41' W 074°09'0 0.0
2018-Feb-10 01:55N 40°41' W 074°09'0 0.0
2018-Feb-10 01:28N 40°41' W 074°09'0 0.0
2018-Feb-10 00:58N 40°41' W 074°09'0 0.0
2018-Feb-10 00:28N 40°41' W 074°09'0 0.0
2018-Feb-09 23:58N 40°41' W 074°09'0 0.0
2018-Feb-09 23:28N 40°41' W 074°09'0 0.0
2018-Feb-09 22:58N 40°41' W 074°09'0 0.0
2018-Feb-09 22:43N 40°41' W 074°09'0 0.0
2018-Feb-08 12:30N 40°41' W 074°09'1 1.0
2018-Feb-08 12:00N 40°40' W 074°08'2 3.1
2018-Feb-08 11:30N 40°39' W 074°09'3 5.6
2018-Feb-08 11:00N 40°39' W 074°05'  
Track history (hours):
 
Tides and Currents Weather Stations Pressure Air Temp Water Temp Dewpoint Dewpoint Depression Visibility Wind Speed Wind Dir Waves Ship Positions

OOCL Asia

Last reported at 2018-Feb-18 10:14 UTC. Time now 2018-Feb-20 23:04 UTC.
Position N 32°02' W 079°54'.

Length 323 m; beam 42.8 m; draft 14.5 m.

Type: Cargo ship. MMSI: 477105600.

Date/timePositionNaut miles runAvg speedWind from/ knotsBaromVisibWave heightAir tempDewpointWater temp
2018-Feb-18 10:14N 32°02' W 079°54'9 7.7
2018-Feb-18 09:03N 31°59' W 080°05'1 8.0
2018-Feb-18 08:56N 31°59' W 080°06'3 8.1
2018-Feb-18 08:30N 31°59' W 080°10'15 8.5
2018-Feb-18 06:43N 31°58' W 080°28'2 9.1
2018-Feb-18 06:31N 31°58' W 080°30'5 9.1
2018-Feb-18 06:00N 31°57' W 080°35'4 8.7
2018-Feb-18 05:31N 31°57' W 080°40'611.4
2018-Feb-18 05:00N 31°59' W 080°47'714.0
2018-Feb-18 04:31N 32°02' W 080°54'612.5
2018-Feb-18 04:01N 32°06' W 080°60'5 8.8
2018-Feb-18 03:30N 32°05' W 081°05'3 5.5
2018-Feb-18 03:00N 32°07' W 081°07'2 3.3
2018-Feb-18 02:31N 32°08' W 081°09'0 0.1
2018-Feb-18 01:56N 32°08' W 081°09'0 0.0
2018-Feb-18 01:20N 32°08' W 081°09'0 0.0
2018-Feb-18 00:26N 32°08' W 081°09'0 0.0
2018-Feb-17 23:56N 32°08' W 081°09'0 0.0
2018-Feb-17 23:26N 32°08' W 081°09'0 0.0
2018-Feb-17 22:56N 32°08' W 081°09'0 0.0
2018-Feb-17 22:26N 32°08' W 081°09'0 0.0
2018-Feb-17 21:38N 32°08' W 081°09'0 0.0
2018-Feb-17 21:20N 32°08' W 081°09'0 0.0
2018-Feb-17 20:56N 32°08' W 081°09'0 0.0
2018-Feb-17 20:25N 32°08' W 081°09'0 0.0
2018-Feb-17 20:00N 32°08' W 081°09'0 0.0
2018-Feb-17 19:28N 32°08' W 081°09'0 0.0
2018-Feb-17 18:52N 32°08' W 081°09'0 0.0
2018-Feb-17 18:22N 32°08' W 081°09'0 0.0
2018-Feb-17 17:48N 32°08' W 081°09'0 0.0
2018-Feb-17 17:18N 32°08' W 081°09'0 0.0
2018-Feb-17 16:48N 32°08' W 081°09'0 0.0
2018-Feb-17 16:30N 32°08' W 081°09'0 0.0
2018-Feb-17 16:00N 32°08' W 081°09'0 0.0
2018-Feb-17 15:30N 32°08' W 081°09'0 0.0
2018-Feb-17 15:00N 32°08' W 081°09'0 0.0
2018-Feb-17 14:24N 32°08' W 081°09'0 0.0
2018-Feb-17 13:54N 32°08' W 081°09'0 0.0
2018-Feb-17 13:24N 32°08' W 081°09'0 0.0
2018-Feb-17 13:00N 32°08' W 081°09'0 0.0
2018-Feb-17 12:29N 32°08' W 081°09'0 1.0
2018-Feb-17 12:00N 32°08' W 081°08'0 0.9
2018-Feb-17 11:29N 32°08' W 081°09'0 0.0
2018-Feb-17 11:00N 32°08' W 081°09'0 0.0
2018-Feb-17 10:30N 32°08' W 081°09'0 0.0
2018-Feb-17 09:59N 32°08' W 081°09'0 0.0
2018-Feb-17 09:29N 32°08' W 081°09'0 0.0
2018-Feb-17 08:57N 32°08' W 081°09'0 0.0
2018-Feb-17 08:27N 32°08' W 081°09'0 0.0
2018-Feb-17 07:57N 32°08' W 081°09'0 0.0
2018-Feb-17 07:09N 32°08' W 081°09'0 0.1
2018-Feb-17 06:57N 32°08' W 081°09'0 0.0
2018-Feb-17 06:27N 32°08' W 081°09'0 0.0
2018-Feb-17 05:57N 32°08' W 081°09'0 0.0
2018-Feb-17 05:21N 32°08' W 081°09'0 0.0
2018-Feb-17 04:59N 32°08' W 081°09'0 0.0
2018-Feb-17 04:29N 32°08' W 081°09'0 0.0
2018-Feb-17 03:59N 32°08' W 081°09'0 0.0
2018-Feb-17 03:29N 32°08' W 081°09'0 0.0
2018-Feb-17 03:00N 32°08' W 081°09'0 0.0
2018-Feb-17 02:30N 32°08' W 081°09'0 0.0
2018-Feb-17 02:00N 32°08' W 081°09'0 0.0
2018-Feb-17 01:24N 32°08' W 081°09'0 0.0
2018-Feb-17 01:00N 32°08' W 081°09'0 0.0
2018-Feb-17 00:12N 32°08' W 081°09'0 0.0
2018-Feb-17 00:00N 32°08' W 081°09'0 0.0
2018-Feb-16 23:30N 32°08' W 081°09'0 0.0
2018-Feb-16 23:00N 32°08' W 081°09'0 0.0
2018-Feb-16 22:27N 32°08' W 081°09'0 0.0
2018-Feb-16 21:57N 32°08' W 081°09'0 0.0
2018-Feb-16 21:27N 32°08' W 081°09'0 0.0
2018-Feb-16 20:57N 32°08' W 081°09'0 0.0
2018-Feb-16 20:21N 32°08' W 081°09'0 0.0
2018-Feb-16 19:57N 32°08' W 081°09'0 0.0
2018-Feb-16 19:27N 32°08' W 081°09'0 0.0
2018-Feb-16 18:51N 32°08' W 081°09'0 0.0
2018-Feb-16 18:27N 32°08' W 081°09'0 0.0
2018-Feb-16 17:57N 32°08' W 081°09'0 0.0
2018-Feb-16 17:21N 32°08' W 081°09'0 0.0
2018-Feb-16 16:39N 32°08' W 081°09'0 0.0
2018-Feb-16 16:24N 32°08' W 081°09'0 0.7
2018-Feb-16 16:00N 32°08' W 081°08'2 3.7
2018-Feb-16 15:30N 32°06' W 081°07'3 5.9
2018-Feb-16 15:00N 32°05' W 081°04'3 5.3
2018-Feb-16 14:30N 32°06' W 081°01'4 7.4
2018-Feb-16 14:00N 32°04' W 080°57'4 8.5
2018-Feb-16 13:30N 32°02' W 080°53'4 8.7
2018-Feb-16 13:00N 32°01' W 080°48'5 9.3
2018-Feb-16 12:30N 31°58' W 080°43'4 7.2
2018-Feb-16 12:00N 31°57' W 080°39'1 2.9
2018-Feb-16 11:30N 31°56' W 080°38'3 6.0
2018-Feb-16 11:00N 31°57' W 080°34'4 7.2
2018-Feb-16 10:30N 31°57' W 080°30'4 8.3
2018-Feb-16 10:00N 31°59' W 080°25'4 8.3
2018-Feb-16 09:30N 32°01' W 080°22'4 8.7
2018-Feb-16 09:00N 32°04' W 080°18'4 8.9
2018-Feb-16 08:30N 32°07' W 080°14'4 8.8
2018-Feb-16 08:00N 32°09' W 080°09'1 2.8
2018-Feb-16 07:30N 32°10' W 080°08'0 0.9
2018-Feb-16 07:00N 32°10' W 080°08'0 0.8
2018-Feb-16 06:30N 32°09' W 080°08'1 0.8
2018-Feb-16 05:09N 32°08' W 080°09'0 1.0
2018-Feb-16 04:53N 32°08' W 080°09'0 1.1
2018-Feb-16 04:30N 32°08' W 080°09'2 1.2
2018-Feb-16 03:15N 32°07' W 080°10'1 1.4
2018-Feb-16 02:18N 32°06' W 080°11'0 1.5
2018-Feb-16 02:00N 32°05' W 080°11'14 1.3
2018-Feb-15 15:19N 32°12' W 079°57'2 1.2
2018-Feb-15 13:29N 32°11' W 079°59'1 1.1
2018-Feb-15 12:58N 32°11' W 079°60'0 0.3
2018-Feb-15 12:29N 32°11' W 079°60'1 2.9
2018-Feb-15 11:59N 32°12' W 080°00'8 7.0
2018-Feb-15 10:47N 32°17' W 080°08'0 0.9
2018-Feb-15 10:27N 32°17' W 080°08'0 0.9
2018-Feb-15 09:57N 32°16' W 080°08'0 0.9
2018-Feb-15 09:30N 32°16' W 080°08'1 1.0
2018-Feb-15 08:56N 32°15' W 080°08'0 1.0
2018-Feb-15 08:30N 32°15' W 080°08'0 1.0
2018-Feb-15 08:00N 32°15' W 080°07'1 0.8
2018-Feb-15 07:14N 32°14' W 080°07'0 0.6
2018-Feb-15 06:59N 32°14' W 080°07'0 0.4
2018-Feb-15 06:13N 32°14' W 080°06'0 0.3
2018-Feb-15 05:58N 32°14' W 080°06'0 0.2
2018-Feb-15 05:08N 32°14' W 080°06'0 0.2
2018-Feb-15 04:55N 32°14' W 080°06'0 0.4
2018-Feb-15 04:20N 32°14' W 080°07'0 0.7
2018-Feb-15 03:55N 32°14' W 080°07'0 0.6
2018-Feb-15 03:22N 32°14' W 080°07'0 0.5
2018-Feb-15 03:00N 32°13' W 080°07'  
2018-Feb-12 16:06N 36°43' W 075°40'215.7
2018-Feb-12 16:00N 36°45' W 075°41'510.0
2018-Feb-12 15:30N 36°48' W 075°46'5 9.8
2018-Feb-12 15:00N 36°51' W 075°50'5 9.7
2018-Feb-12 14:30N 36°54' W 075°55'5 9.7
2018-Feb-12 14:00N 36°56' W 076°00'714.1
2018-Feb-12 13:30N 36°59' W 076°08'714.6
2018-Feb-12 13:00N 36°60' W 076°17'5 9.9
2018-Feb-12 12:30N 36°55' W 076°20'1 2.1
2018-Feb-12 11:59N 36°55' W 076°20'0 0.0
2018-Feb-12 11:29N 36°55' W 076°20'0 0.0
2018-Feb-12 10:59N 36°55' W 076°20'0 0.0
2018-Feb-12 10:29N 36°55' W 076°20'0 0.0
2018-Feb-12 09:59N 36°55' W 076°20'0 0.0
2018-Feb-12 09:29N 36°55' W 076°20'0 0.0
2018-Feb-12 08:59N 36°55' W 076°20'0 0.0
2018-Feb-12 08:29N 36°55' W 076°20'0 0.0
2018-Feb-12 07:59N 36°55' W 076°20'0 0.0
2018-Feb-12 07:29N 36°55' W 076°20'0 0.0
2018-Feb-12 06:59N 36°55' W 076°20'0 0.0
2018-Feb-12 06:29N 36°55' W 076°20'0 0.0
2018-Feb-12 05:59N 36°55' W 076°20'0 0.0
2018-Feb-12 05:29N 36°55' W 076°20'0 0.0
2018-Feb-12 04:59N 36°55' W 076°20'0 0.0
2018-Feb-12 04:29N 36°55' W 076°20'0 0.0
2018-Feb-12 03:59N 36°55' W 076°20'0 0.0
2018-Feb-12 03:29N 36°55' W 076°20'0 0.0
2018-Feb-12 02:59N 36°55' W 076°20'0 0.0
2018-Feb-12 02:29N 36°55' W 076°20'0 0.0
2018-Feb-12 01:59N 36°55' W 076°20'0 0.0
2018-Feb-12 01:29N 36°55' W 076°20'0 0.0
2018-Feb-12 00:59N 36°55' W 076°20'0 0.0
2018-Feb-12 00:29N 36°55' W 076°20'0 0.0
2018-Feb-11 23:59N 36°55' W 076°20'0 0.0
2018-Feb-11 23:29N 36°55' W 076°20'0 0.0
2018-Feb-11 22:59N 36°55' W 076°20'0 0.0
2018-Feb-11 22:29N 36°55' W 076°20'0 0.0
2018-Feb-11 21:59N 36°55' W 076°20'0 0.0
2018-Feb-11 21:29N 36°55' W 076°20'0 0.0
2018-Feb-11 20:59N 36°55' W 076°20'0 0.0
2018-Feb-11 20:29N 36°55' W 076°20'0 0.0
2018-Feb-11 19:59N 36°55' W 076°20'0 0.0
2018-Feb-11 19:29N 36°55' W 076°20'0 0.0
2018-Feb-11 18:59N 36°55' W 076°20'0 0.0
2018-Feb-11 18:29N 36°55' W 076°20'0 0.0
2018-Feb-11 17:59N 36°55' W 076°20'0 0.0
2018-Feb-11 17:29N 36°55' W 076°20'0 0.0
2018-Feb-11 16:59N 36°55' W 076°20'0 0.0
2018-Feb-11 16:29N 36°55' W 076°20'0 0.0
2018-Feb-11 15:59N 36°55' W 076°20'0 0.0
2018-Feb-11 15:29N 36°55' W 076°20'0 0.0
2018-Feb-11 14:59N 36°55' W 076°20'0 0.0
2018-Feb-11 14:29N 36°55' W 076°20'0 0.0
2018-Feb-11 13:59N 36°55' W 076°20'0 0.0
2018-Feb-11 13:29N 36°55' W 076°20'0 0.0
2018-Feb-11 12:56N 36°55' W 076°20'0 0.0
2018-Feb-11 12:29N 36°55' W 076°20'0 0.0
2018-Feb-11 11:59N 36°55' W 076°20'0 0.0
2018-Feb-11 11:26N 36°55' W 076°20'0 0.0
2018-Feb-11 10:56N 36°55' W 076°20'0 0.0
2018-Feb-11 10:29N 36°55' W 076°20'0 0.0
2018-Feb-11 09:59N 36°55' W 076°20'0 0.0
2018-Feb-11 09:29N 36°55' W 076°20'0 0.0
2018-Feb-11 08:59N 36°55' W 076°20'0 0.0
2018-Feb-11 08:29N 36°55' W 076°20'0 0.0
2018-Feb-11 07:59N 36°55' W 076°20'0 0.0
2018-Feb-11 07:29N 36°55' W 076°20'0 0.0
2018-Feb-11 06:59N 36°55' W 076°20'0 0.0
2018-Feb-11 06:29N 36°55' W 076°20'0 0.0
2018-Feb-11 05:59N 36°55' W 076°20'0 0.0
2018-Feb-11 05:29N 36°55' W 076°20'0 0.0
2018-Feb-11 04:59N 36°55' W 076°20'0 0.0
2018-Feb-11 04:29N 36°55' W 076°20'0 0.1
2018-Feb-11 04:00N 36°55' W 076°20'1 1.9
2018-Feb-11 03:30N 36°55' W 076°20'4 8.4
2018-Feb-11 03:00N 36°59' W 076°19'612.4
2018-Feb-11 02:30N 36°60' W 076°11'714.5
2018-Feb-11 02:00N 36°57' W 076°02'510.7
2018-Feb-11 01:31N 36°56' W 075°56'5 8.6
2018-Feb-11 00:59N 36°53' W 075°52'5 9.6
2018-Feb-11 00:30N 36°50' W 075°47'17314.0
2018-Feb-10 12:04N 39°20' W 073°56'215.0
2018-Feb-10 11:55N 39°22' W 073°56'714.9
2018-Feb-10 11:28N 39°29' W 073°55'814.9
2018-Feb-10 10:57N 39°37' W 073°53'715.0
2018-Feb-10 10:29N 39°44' W 073°52'715.2
2018-Feb-10 10:00N 39°51' W 073°51'2014.4
2018-Feb-10 08:36N 40°11' W 073°50'2 9.6
2018-Feb-10 08:26N 40°13' W 073°49'4 9.8
2018-Feb-10 08:00N 40°17' W 073°49'5 9.7
2018-Feb-10 07:30N 40°22' W 073°49'5 9.7
2018-Feb-10 07:00N 40°27' W 073°50'5 9.5
2018-Feb-10 06:30N 40°29' W 073°55'611.8
2018-Feb-10 06:00N 40°33' W 074°01'713.7
2018-Feb-10 05:31N 40°39' W 074°04'3 6.6
2018-Feb-10 05:01N 40°39' W 074°09'2 4.1
2018-Feb-10 04:31N 40°41' W 074°09'0 0.0
2018-Feb-10 03:58N 40°41' W 074°09'0 0.0
2018-Feb-10 03:28N 40°41' W 074°09'0 0.0
2018-Feb-10 02:58N 40°41' W 074°09'0 0.0
2018-Feb-10 02:28N 40°41' W 074°09'0 0.0
2018-Feb-10 01:55N 40°41' W 074°09'0 0.0
2018-Feb-10 01:28N 40°41' W 074°09'0 0.0
2018-Feb-10 00:58N 40°41' W 074°09'0 0.0
2018-Feb-10 00:28N 40°41' W 074°09'0 0.0
2018-Feb-09 23:58N 40°41' W 074°09'0 0.0
2018-Feb-09 23:28N 40°41' W 074°09'0 0.0
2018-Feb-09 22:58N 40°41' W 074°09'0 0.0
2018-Feb-09 22:43N 40°41' W 074°09'0 0.0
2018-Feb-08 12:30N 40°41' W 074°09'1 1.0
2018-Feb-08 12:00N 40°40' W 074°08'2 3.1
2018-Feb-08 11:30N 40°39' W 074°09'3 5.6
2018-Feb-08 11:00N 40°39' W 074°05'  

Dump ship's entire track history